createdAt,value
2022-09-15T05:00:44.086Z,61.05
2022-09-15T05:03:16.294Z,61.36
2022-09-15T05:05:48.503Z,61.00
2022-09-15T05:08:17.243Z,60.12
2022-09-15T05:10:46.245Z,59.97
2022-09-15T05:13:15.246Z,60.30
2022-09-15T05:15:44.203Z,61.01
2022-09-15T05:18:13.126Z,57.12
2022-09-15T05:20:41.905Z,55.22
2022-09-15T05:23:11.065Z,57.38
2022-09-15T05:25:39.890Z,64.68
2022-09-15T05:28:08.603Z,66.53
2022-09-15T05:30:44.883Z,64.19
2022-09-15T05:33:17.224Z,62.49
2022-09-15T05:36:01.063Z,61.53
2022-09-15T05:38:32.543Z,60.21
2022-09-15T05:41:05.406Z,56.56
2022-09-15T05:43:36.947Z,56.37
2022-09-15T05:46:07.956Z,63.16
2022-09-15T05:48:37.531Z,65.19
2022-09-15T05:51:07.509Z,62.67
2022-09-15T05:53:37.312Z,61.54
2022-09-15T05:56:12.285Z,61.38
2022-09-15T05:58:43.465Z,61.19
2022-09-15T06:01:26.293Z,60.58
2022-09-15T06:03:57.323Z,59.71
2022-09-15T06:06:29.897Z,56.50
2022-09-15T06:09:02.170Z,56.16
2022-09-15T06:11:35.684Z,58.47
2022-09-15T06:14:06.674Z,65.69
2022-09-15T06:16:37.685Z,66.00
2022-09-15T06:19:13.131Z,64.08
2022-09-15T06:21:49.943Z,61.57
2022-09-15T06:24:19.839Z,56.62
2022-09-15T06:26:49.894Z,54.82
2022-09-15T06:29:20.031Z,57.35
2022-09-15T06:31:50.082Z,65.16
2022-09-15T06:34:29.013Z,66.65
2022-09-15T06:36:58.831Z,62.52
2022-09-15T06:39:28.328Z,61.04
2022-09-15T06:42:05.811Z,56.76
2022-09-15T06:44:35.023Z,56.60
2022-09-15T06:47:04.832Z,57.74
2022-09-15T06:49:33.920Z,64.26
2022-09-15T06:52:03.425Z,66.91
2022-09-15T06:54:32.183Z,62.28
2022-09-15T06:57:01.003Z,56.85
2022-09-15T06:59:29.945Z,56.12
2022-09-15T07:02:06.138Z,58.94
2022-09-15T07:04:39.141Z,65.67
2022-09-15T07:07:09.317Z,66.61
2022-09-15T07:09:42.815Z,62.72
2022-09-15T07:12:13.592Z,56.90
2022-09-15T07:14:43.407Z,55.37
2022-09-15T07:17:12.200Z,57.07
2022-09-15T07:19:41.903Z,60.40
2022-09-15T07:22:12.364Z,66.48
2022-09-15T07:24:41.025Z,66.56
2022-09-15T07:27:10.083Z,62.13
2022-09-15T07:29:39.165Z,56.93
2022-09-15T07:32:08.154Z,55.78
2022-09-15T07:34:36.906Z,57.09
2022-09-15T07:37:06.727Z,59.30
2022-09-15T07:39:35.622Z,65.55
2022-09-15T07:42:06.763Z,64.37
2022-09-15T07:44:35.648Z,60.88
2022-09-15T07:47:04.684Z,56.79
2022-09-15T07:49:33.633Z,55.91
2022-09-15T07:52:03.307Z,58.16
2022-09-15T07:54:32.044Z,58.67
2022-09-15T07:57:01.126Z,65.15
2022-09-15T07:59:29.999Z,65.49
2022-09-15T08:01:58.750Z,62.30
2022-09-15T08:04:27.794Z,56.85
2022-09-15T08:06:57.483Z,55.28
2022-09-15T08:09:26.503Z,56.54
2022-09-15T08:11:55.304Z,56.34
2022-09-15T08:14:31.877Z,60.11
2022-09-15T08:17:04.528Z,61.18
2022-09-15T08:19:36.426Z,68.17
2022-09-15T08:22:05.620Z,66.79
2022-09-15T08:24:35.210Z,58.28
2022-09-15T08:27:04.361Z,55.79
2022-09-15T08:29:33.203Z,56.47
2022-09-15T08:32:02.925Z,58.21
2022-09-15T08:34:32.108Z,60.80
2022-09-15T08:37:01.005Z,61.40
2022-09-15T08:39:29.683Z,66.40
2022-09-15T08:42:02.005Z,65.69
2022-09-15T09:26:28.809Z,52.93
2022-09-15T09:29:08.585Z,55.14
2022-09-15T09:31:37.740Z,55.06
2022-09-15T09:34:42.879Z,55.27
2022-09-15T09:37:17.717Z,55.73
2022-09-15T09:39:48.073Z,57.20
2022-09-15T09:42:19.746Z,58.72
2022-09-15T09:44:59.339Z,58.97
2022-09-15T09:51:40.166Z,59.99
2022-09-15T09:54:18.387Z,64.18
2022-09-15T09:56:52.547Z,65.29
2022-09-15T09:59:42.671Z,57.62
2022-09-15T10:02:16.512Z,53.77
2022-09-15T10:04:55.769Z,54.13
2022-09-15T10:07:27.528Z,54.41
2022-09-15T10:10:00.586Z,55.99
2022-09-15T10:12:41.878Z,56.58
2022-09-15T10:15:26.724Z,57.10
2022-09-15T10:17:57.603Z,58.19
2022-09-15T10:20:46.167Z,58.59
2022-09-15T10:23:18.228Z,59.17
2022-09-15T10:25:59.162Z,60.10
2022-09-15T10:28:29.632Z,66.27
2022-09-15T10:31:11.826Z,64.92
2022-09-15T10:33:46.057Z,56.12
2022-09-15T10:36:20.956Z,52.29
2022-09-15T10:38:56.824Z,52.73
2022-09-15T10:41:32.427Z,53.16
2022-09-15T10:44:45.091Z,54.06
2022-09-15T10:47:56.076Z,54.88
2022-09-15T10:50:52.418Z,55.66
2022-09-15T10:54:04.017Z,57.43
2022-09-15T10:56:52.863Z,57.63
2022-09-15T10:59:48.475Z,58.26
2022-09-15T11:03:21.775Z,59.23
2022-09-15T11:06:11.963Z,58.46
2022-09-15T11:09:16.098Z,58.98
2022-09-15T11:12:54.712Z,59.39
2022-09-15T11:16:00.493Z,59.75
2022-09-15T11:19:27.438Z,60.09
2022-09-15T11:22:07.778Z,59.98
2022-09-15T11:24:50.493Z,60.45
2022-09-15T11:27:38.022Z,59.69
2022-09-15T11:30:34.153Z,60.97
2022-09-15T11:33:40.403Z,61.03
2022-09-15T11:36:23.352Z,60.65
2022-09-15T11:39:13.632Z,61.12
2022-09-15T11:41:56.953Z,61.33
2022-09-15T11:44:40.112Z,61.48
2022-09-15T11:48:21.907Z,60.94
2022-09-15T11:57:32.598Z,60.72
2022-09-15T12:00:15.344Z,61.24
2022-09-15T12:03:23.645Z,60.79
2022-09-15T12:06:02.973Z,60.51
2022-09-15T12:08:47.596Z,60.28
2022-09-15T12:11:26.388Z,59.87
2022-09-15T12:13:56.363Z,59.13
2022-09-15T12:16:27.668Z,59.68
2022-09-15T12:19:38.099Z,59.30
2022-09-15T12:22:23.867Z,59.18
2022-09-15T12:25:06.625Z,58.85
2022-09-15T12:27:36.417Z,59.01
2022-09-15T12:30:07.049Z,59.05
2022-09-15T12:32:37.103Z,59.61
2022-09-15T12:35:18.912Z,59.64
2022-09-15T12:37:59.427Z,59.50
2022-09-15T12:40:31.330Z,58.95
2022-09-15T12:43:16.350Z,58.54
2022-09-15T12:46:02.489Z,58.97
2022-09-15T12:48:36.833Z,59.00
2022-09-15T12:51:13.425Z,59.31
2022-09-15T12:53:55.840Z,59.66
2022-09-15T12:56:30.352Z,58.97
2022-09-15T12:59:14.233Z,59.06
2022-09-15T13:01:51.387Z,58.84
2022-09-15T13:04:44.339Z,58.75
2022-09-15T13:07:16.084Z,59.28
2022-09-15T13:09:58.416Z,59.12
2022-09-15T13:12:43.988Z,58.59
2022-09-15T13:15:19.124Z,58.72
2022-09-15T13:17:48.626Z,58.08
2022-09-15T13:20:30.625Z,57.93
2022-09-15T13:23:02.214Z,58.89
2022-09-15T13:25:31.785Z,57.89
2022-09-15T13:28:03.939Z,56.74
2022-09-15T13:31:06.919Z,56.65
2022-09-15T13:41:04.903Z,57.08
2022-09-15T13:43:58.876Z,57.78
2022-09-15T13:46:56.729Z,58.38
2022-09-15T13:50:16.611Z,59.12
2022-09-15T13:53:27.181Z,59.65
2022-09-15T13:55:57.250Z,60.18
2022-09-15T14:01:26.237Z,67.58
2022-09-15T14:04:24.988Z,67.95
2022-09-15T14:07:01.084Z,59.29
2022-09-15T14:09:47.928Z,54.24
2022-09-15T14:12:19.108Z,54.38
2022-09-15T14:14:58.970Z,55.73
2022-09-15T14:17:30.417Z,55.68
2022-09-15T14:20:02.188Z,54.91
2022-09-15T14:22:34.724Z,54.39
2022-09-15T14:25:15.150Z,54.93
2022-09-15T14:27:51.588Z,55.08
2022-09-15T14:30:32.848Z,55.79
2022-09-15T14:33:04.450Z,56.15
2022-09-15T14:35:39.140Z,57.05
2022-09-15T14:38:20.450Z,57.57
2022-09-15T14:40:57.409Z,58.27
2022-09-15T14:43:40.950Z,59.26
2022-09-15T14:46:18.015Z,59.60
2022-09-15T14:48:47.350Z,60.05
2022-09-15T14:51:26.137Z,60.13
2022-09-15T14:54:03.716Z,59.99
2022-09-15T14:56:50.059Z,60.18
2022-09-15T14:59:47.825Z,59.58
2022-09-15T15:02:45.206Z,59.17
2022-09-15T15:05:26.966Z,57.93
2022-09-15T15:30:51.856Z,60.31
2022-09-15T15:33:28.198Z,60.35
2022-09-15T15:36:12.266Z,60.45
2022-09-15T15:38:47.522Z,60.59
2022-09-15T15:41:31.444Z,60.66
2022-09-15T15:44:07.476Z,60.99
2022-09-15T15:47:01.568Z,61.23
2022-09-15T15:49:32.648Z,61.61
2022-09-15T15:52:01.922Z,68.14
2022-09-15T15:54:29.373Z,66.66
2022-09-15T15:57:24.686Z,57.16
2022-09-15T15:59:58.158Z,54.10
2022-09-15T16:02:26.900Z,55.53
2022-09-15T16:04:55.038Z,57.11
2022-09-15T16:07:28.881Z,58.36
2022-09-15T16:10:01.618Z,59.44
2022-09-15T16:12:30.819Z,60.57
2022-09-15T16:15:01.048Z,66.15
2022-09-15T16:17:28.306Z,68.60
2022-09-15T16:19:55.976Z,62.22
2022-09-15T16:22:23.517Z,57.54
2022-09-15T16:24:52.619Z,53.33
2022-09-15T16:27:20.178Z,53.02
2022-09-15T16:29:48.048Z,53.84
2022-09-15T16:32:21.388Z,54.62
2022-09-15T16:34:52.390Z,55.06
2022-09-15T16:37:20.767Z,55.96
2022-09-15T16:39:48.582Z,57.08
2022-09-15T16:42:16.178Z,58.01
2022-09-15T16:44:44.148Z,58.89
2022-09-15T16:47:11.308Z,59.86
2022-09-15T16:49:39.289Z,66.30
2022-09-15T16:52:13.308Z,70.56
2022-09-15T16:54:40.550Z,65.01
2022-09-15T16:57:07.908Z,55.89
2022-09-15T16:59:35.986Z,51.95
2022-09-15T17:02:05.490Z,52.05
2022-09-15T17:04:32.927Z,53.15
2022-09-15T17:07:00.287Z,54.90
2022-09-15T17:09:27.549Z,56.17
2022-09-15T17:11:55.878Z,57.27
2022-09-15T17:14:23.389Z,59.18
2022-09-15T17:16:52.787Z,65.95
2022-09-15T17:19:20.437Z,68.72
2022-09-15T17:21:49.934Z,62.56
2022-09-15T17:24:18.049Z,56.25
2022-09-15T17:26:45.910Z,53.88
2022-09-15T17:29:13.439Z,55.37
2022-09-15T17:31:41.153Z,57.02
2022-09-15T17:34:14.106Z,58.82
2022-09-15T17:36:41.566Z,65.65
2022-09-15T17:39:09.207Z,67.31
2022-09-15T17:41:38.406Z,59.24
2022-09-15T17:44:11.116Z,54.69
2022-09-15T17:46:38.594Z,55.11
2022-09-15T17:49:06.305Z,56.78
2022-09-15T17:51:33.986Z,58.80
2022-09-15T17:54:01.349Z,64.82
2022-09-15T17:56:28.995Z,67.15
2022-09-15T17:58:56.346Z,58.39
2022-09-15T18:01:24.008Z,55.25
2022-09-15T18:03:51.457Z,56.06
2022-09-15T18:06:18.926Z,57.69
2022-09-15T18:08:46.431Z,59.24
2022-09-15T18:11:15.185Z,59.96
2022-09-15T18:13:42.770Z,64.85
2022-09-15T18:16:14.322Z,67.63
2022-09-15T18:18:42.646Z,59.65
2022-09-15T18:21:25.692Z,54.92
2022-09-15T18:23:53.147Z,55.28
2022-09-15T18:26:23.848Z,57.47
2022-09-15T18:28:54.253Z,59.41
2022-09-15T18:31:21.947Z,64.97
2022-09-15T18:33:49.326Z,67.03
2022-09-15T18:36:16.876Z,59.47
2022-09-15T18:38:44.037Z,55.29
2022-09-15T18:41:11.585Z,55.83
2022-09-15T18:43:39.147Z,57.52
2022-09-15T18:46:06.935Z,59.20
2022-09-15T18:48:34.270Z,66.16
2022-09-15T18:51:01.538Z,68.17
2022-09-15T18:53:30.009Z,64.04
2022-09-15T18:55:58.434Z,56.82
2022-09-15T18:58:26.575Z,54.17
2022-09-15T19:01:00.070Z,55.42
2022-09-15T19:03:28.357Z,57.83
2022-09-15T19:05:55.996Z,64.20
2022-09-15T19:08:23.354Z,66.04
2022-09-15T19:10:59.057Z,61.66
2022-09-15T19:13:28.536Z,56.58
2022-09-15T19:16:02.041Z,54.99
2022-09-15T19:18:31.226Z,56.25
2022-09-15T19:21:11.211Z,58.63
2022-09-15T19:23:39.746Z,65.98
2022-09-15T19:26:18.749Z,65.59
2022-09-15T19:28:51.237Z,61.00
2022-09-15T19:31:19.778Z,57.36
2022-09-15T19:33:48.307Z,55.62
2022-09-15T19:36:28.154Z,57.19
2022-09-15T19:39:02.798Z,58.83
2022-09-15T19:41:31.266Z,66.76
2022-09-15T19:44:02.217Z,67.45
2022-09-15T19:46:31.400Z,63.42
2022-09-15T19:48:59.075Z,58.22
2022-09-15T19:51:26.326Z,55.99
2022-09-15T19:53:58.792Z,57.30
2022-09-15T19:56:28.249Z,64.65
2022-09-15T19:58:58.648Z,66.89
2022-09-15T20:01:29.144Z,63.22
2022-09-15T20:06:43.515Z,54.30
2022-09-15T20:09:11.286Z,56.39
2022-09-15T20:11:39.249Z,58.94
2022-09-15T20:14:06.931Z,65.90
2022-09-15T20:16:35.391Z,68.67
2022-09-15T20:19:04.580Z,64.08
2022-09-15T20:21:52.306Z,57.33
2022-09-15T20:24:23.510Z,54.26
2022-09-15T20:26:52.595Z,56.44
2022-09-15T20:29:21.091Z,58.78
2022-09-15T20:31:48.846Z,65.79
2022-09-15T20:34:18.288Z,68.04
2022-09-15T20:36:45.786Z,63.68
2022-09-15T20:39:15.558Z,57.49
2022-09-15T20:41:46.589Z,54.54
2022-09-15T20:44:15.127Z,56.25
2022-09-15T20:46:43.092Z,58.98
2022-09-15T20:49:12.108Z,66.08
2022-09-15T20:51:39.537Z,67.93
2022-09-15T20:54:06.899Z,62.97
2022-09-15T20:56:37.865Z,57.25
2022-09-15T20:59:07.528Z,54.21
2022-09-15T21:01:38.043Z,55.78
2022-09-15T21:04:08.712Z,58.04
2022-09-15T21:06:37.397Z,65.40
2022-09-15T21:09:05.356Z,67.79
2022-09-15T21:11:33.745Z,62.19
2022-09-15T21:14:02.176Z,57.07
2022-09-15T21:16:30.052Z,55.05
2022-09-15T21:18:58.832Z,56.59
2022-09-15T21:21:30.099Z,58.41
2022-09-15T21:24:03.326Z,66.67
2022-09-15T21:26:59.866Z,67.49
2022-09-15T21:29:28.425Z,63.03
2022-09-15T21:31:56.477Z,57.34
2022-09-15T21:34:24.367Z,55.66
2022-09-15T21:36:53.156Z,57.72
2022-09-15T21:39:21.237Z,64.85
2022-09-15T21:41:49.508Z,65.18
2022-09-15T21:44:16.969Z,62.83
2022-09-15T21:46:46.786Z,57.52
2022-09-15T21:49:14.872Z,55.15
2022-09-15T21:51:42.407Z,56.72
2022-09-15T21:54:10.378Z,59.46
2022-09-15T21:56:38.256Z,66.45
